createdAt,value
2018-07-21T00:04:11.833Z,58.40
2018-07-21T00:06:40.178Z,58.70
2018-07-21T00:09:11.091Z,58.90
2018-07-21T00:11:39.949Z,59.20
2018-07-21T00:14:08.612Z,59.40
2018-07-21T00:16:37.222Z,59.60
2018-07-21T00:19:05.850Z,59.80
2018-07-21T00:21:34.206Z,60.10
2018-07-21T00:24:02.615Z,60.40
2018-07-21T00:26:36.314Z,60.80
2018-07-21T00:29:04.700Z,61.30
2018-07-21T00:31:33.116Z,61.60
2018-07-21T00:34:01.691Z,61.90
2018-07-21T00:36:30.071Z,62.70
2018-07-21T00:38:58.554Z,63.20
2018-07-21T00:41:26.929Z,63.40
2018-07-21T00:43:55.288Z,63.80
2018-07-21T00:46:23.661Z,63.90
2018-07-21T00:48:52.059Z,64.60
2018-07-21T00:51:20.417Z,64.80
2018-07-21T00:53:48.814Z,65.50
2018-07-21T00:56:17.166Z,67.10
2018-07-21T00:58:45.556Z,67.00
2018-07-21T01:01:13.962Z,67.70
2018-07-21T01:06:10.448Z,68.60
2018-07-21T01:08:38.852Z,69.00
2018-07-21T01:11:07.427Z,69.10
2018-07-21T01:13:35.814Z,69.50
2018-07-21T01:16:04.227Z,69.80
2018-07-21T01:18:32.593Z,70.00
2018-07-21T01:21:01.003Z,70.50
2018-07-21T01:23:29.371Z,71.10
2018-07-21T01:25:57.762Z,71.50
2018-07-21T01:28:26.131Z,71.60
2018-07-21T01:30:54.556Z,71.80
2018-07-21T01:33:22.915Z,72.00
2018-07-21T01:35:51.505Z,72.30
2018-07-21T01:38:19.883Z,72.40
2018-07-21T01:40:48.290Z,72.50
2018-07-21T01:43:16.653Z,72.80
2018-07-21T01:45:45.054Z,72.90
2018-07-21T01:48:13.438Z,73.10
2018-07-21T01:50:41.822Z,73.30
2018-07-21T01:53:10.203Z,73.70
2018-07-21T01:55:38.625Z,74.00
2018-07-21T01:58:06.999Z,74.10
2018-07-21T02:00:35.410Z,74.40
2018-07-21T02:03:03.783Z,74.60
2018-07-21T02:05:32.187Z,75.10
2018-07-21T02:08:00.549Z,75.10
2018-07-21T02:10:28.963Z,75.30
2018-07-21T02:12:57.380Z,75.60
2018-07-21T02:15:25.794Z,75.50
2018-07-21T02:17:54.165Z,75.60
2018-07-21T02:20:22.562Z,76.00
2018-07-21T02:22:50.958Z,75.80
2018-07-21T02:25:19.345Z,76.10
2018-07-21T02:27:47.699Z,76.60
2018-07-21T02:30:16.111Z,76.70
2018-07-21T02:32:44.484Z,77.10
2018-07-21T02:35:12.899Z,77.60
2018-07-21T02:37:41.289Z,78.10
2018-07-21T02:40:09.830Z,78.30
2018-07-21T02:42:38.159Z,78.40
2018-07-21T02:45:06.560Z,78.70
2018-07-21T02:47:34.938Z,78.70
2018-07-21T02:50:03.365Z,79.00
2018-07-21T02:52:31.696Z,79.00
2018-07-21T02:55:00.174Z,78.70
2018-07-21T02:57:28.596Z,78.80
2018-07-21T02:59:56.988Z,78.60
2018-07-21T03:02:25.375Z,78.60
2018-07-21T03:04:53.756Z,78.70
2018-07-21T03:07:22.139Z,78.30
2018-07-21T03:09:50.553Z,78.90
2018-07-21T03:12:18.939Z,78.80
2018-07-21T03:14:47.311Z,78.70
2018-07-21T03:17:15.687Z,78.70
2018-07-21T03:22:12.251Z,77.80
2018-07-21T03:24:40.611Z,77.40
2018-07-21T03:27:08.985Z,76.50
2018-07-21T03:29:37.325Z,75.80
2018-07-21T03:32:05.696Z,75.20
2018-07-21T03:34:34.075Z,74.10
2018-07-21T03:37:02.474Z,73.30
2018-07-21T03:42:05.555Z,71.70
2018-07-21T03:44:33.908Z,71.30
2018-07-21T03:47:02.315Z,71.50
2018-07-21T03:49:31.071Z,71.80
2018-07-21T03:51:59.499Z,71.80
2018-07-21T03:54:27.907Z,72.20
2018-07-21T03:56:56.283Z,72.70
2018-07-21T03:59:24.798Z,72.80
2018-07-21T04:01:53.216Z,72.70
2018-07-21T04:04:21.595Z,72.50
2018-07-21T04:06:49.962Z,72.50
2018-07-21T04:09:18.324Z,72.40
2018-07-21T04:11:46.735Z,72.40
2018-07-21T04:14:15.069Z,72.20
2018-07-21T04:16:43.455Z,72.20
2018-07-21T04:19:11.822Z,72.20
2018-07-21T04:21:40.194Z,71.90
2018-07-21T04:24:08.565Z,71.60
2018-07-21T04:26:36.974Z,72.00
2018-07-21T04:29:05.546Z,71.80
2018-07-21T04:31:33.954Z,71.40
2018-07-21T04:36:30.686Z,71.20
2018-07-21T04:38:59.263Z,71.10
2018-07-21T04:41:28.173Z,70.60
2018-07-21T04:43:56.512Z,70.20
2018-07-21T04:46:24.893Z,69.90
2018-07-21T04:51:21.313Z,70.40
2018-07-21T04:53:49.748Z,69.80
2018-07-21T04:56:18.221Z,69.80
2018-07-21T04:58:46.652Z,68.00
2018-07-21T05:01:15.033Z,67.90
2018-07-21T05:03:43.521Z,67.00
2018-07-21T05:08:40.032Z,66.80
2018-07-21T05:11:08.421Z,68.20
2018-07-21T05:13:36.802Z,68.90
2018-07-21T05:16:05.267Z,69.40
2018-07-21T05:18:33.683Z,69.60
2018-07-21T05:21:02.076Z,69.70
2018-07-21T05:23:30.449Z,69.60
2018-07-21T05:25:58.804Z,69.40
2018-07-21T05:28:27.207Z,69.30
2018-07-21T05:30:55.593Z,69.80
2018-07-21T05:33:24.029Z,70.50
2018-07-21T05:35:52.367Z,71.00
2018-07-21T05:38:20.773Z,71.30
2018-07-21T05:40:49.688Z,71.50
2018-07-21T05:43:18.118Z,72.30
2018-07-21T05:45:46.533Z,73.00
2018-07-21T05:48:14.983Z,74.10
2018-07-21T05:50:43.339Z,74.90
2018-07-21T05:53:11.785Z,74.00
2018-07-21T05:55:40.118Z,74.40
2018-07-21T05:58:08.501Z,74.60
2018-07-21T06:00:36.950Z,74.50
2018-07-21T06:03:05.409Z,74.40
2018-07-21T06:05:33.963Z,74.70
2018-07-21T06:08:02.357Z,75.10
2018-07-21T06:10:30.716Z,74.80
2018-07-21T06:12:59.146Z,74.90
2018-07-21T06:15:27.510Z,74.80
2018-07-21T06:17:55.927Z,74.60
2018-07-21T06:20:24.302Z,75.10
2018-07-21T06:22:52.690Z,75.00
2018-07-21T06:25:21.067Z,75.20
2018-07-21T06:27:49.654Z,75.00
2018-07-21T06:30:18.005Z,74.60
2018-07-21T06:32:46.481Z,74.10
2018-07-21T06:35:14.854Z,73.80
2018-07-21T06:37:43.290Z,73.40
2018-07-21T06:40:11.654Z,73.20
2018-07-21T06:42:40.050Z,73.00
2018-07-21T06:45:08.437Z,73.10
2018-07-21T06:47:36.836Z,73.30
2018-07-21T06:50:05.938Z,73.10
2018-07-21T06:52:34.339Z,72.50
2018-07-21T06:55:02.739Z,72.00
2018-07-21T06:57:31.076Z,71.50
2018-07-21T06:59:59.507Z,71.80
2018-07-21T07:02:27.923Z,71.00
2018-07-21T07:04:56.309Z,70.20
2018-07-21T07:07:24.802Z,70.60
2018-07-21T07:09:53.219Z,71.80
2018-07-21T07:12:21.589Z,71.90
2018-07-21T07:14:49.978Z,72.30
2018-07-21T07:17:18.349Z,72.50
2018-07-21T07:19:46.733Z,73.00
2018-07-21T07:22:15.133Z,73.40
2018-07-21T07:24:43.574Z,74.20
2018-07-21T07:27:11.968Z,75.10
2018-07-21T07:29:40.666Z,75.40
2018-07-21T07:32:09.266Z,76.40
2018-07-21T07:34:37.656Z,77.50
2018-07-21T07:37:06.525Z,79.20
2018-07-21T07:39:34.967Z,80.80
2018-07-21T07:42:03.374Z,82.90
2018-07-21T07:44:31.782Z,84.50
2018-07-21T07:47:00.189Z,87.60
2018-07-21T07:49:28.655Z,89.60
2018-07-21T07:51:57.090Z,90.70
2018-07-21T07:54:25.593Z,92.10
2018-07-21T07:56:53.955Z,92.30
2018-07-21T07:59:22.365Z,93.30
2018-07-21T08:01:50.732Z,96.50
2018-07-21T08:04:19.121Z,98.00
2018-07-21T08:06:47.537Z,99.40
2018-07-21T08:09:15.987Z,99.90
2018-07-21T08:11:44.385Z,99.90
2018-07-21T08:14:12.829Z,99.90
2018-07-21T08:16:41.245Z,99.90
2018-07-21T08:19:09.758Z,99.90
2018-07-21T08:21:38.133Z,99.90
2018-07-21T08:24:06.526Z,99.90
2018-07-21T08:26:34.947Z,99.90
2018-07-21T08:29:03.356Z,99.90
2018-07-21T08:31:31.788Z,99.90
2018-07-21T08:34:00.338Z,99.90
2018-07-21T08:36:28.821Z,99.90
2018-07-21T08:38:57.539Z,99.90
2018-07-21T08:41:25.978Z,99.90
2018-07-21T08:43:54.413Z,99.90
2018-07-21T08:46:22.822Z,99.90
2018-07-21T08:48:51.202Z,99.90
2018-07-21T08:51:19.594Z,99.90
2018-07-21T08:53:47.970Z,99.90
2018-07-21T08:56:16.401Z,99.90
2018-07-21T08:58:44.789Z,99.90
2018-07-21T09:01:13.188Z,99.90
2018-07-21T09:03:41.875Z,99.90
2018-07-21T09:06:10.276Z,99.90
2018-07-21T09:08:38.623Z,99.90
2018-07-21T09:11:07.039Z,99.90
2018-07-21T09:13:35.442Z,99.90
2018-07-21T09:16:04.164Z,99.90
2018-07-21T09:18:32.580Z,99.90
2018-07-21T09:21:01.027Z,99.90
2018-07-21T09:23:29.467Z,99.90
2018-07-21T09:25:57.878Z,99.90
2018-07-21T09:28:26.245Z,99.90
2018-07-21T09:30:54.649Z,99.90
2018-07-21T09:33:23.042Z,99.90
2018-07-21T09:35:51.479Z,99.90
2018-07-21T09:38:19.895Z,99.90
2018-07-21T09:40:48.307Z,99.90
2018-07-21T09:43:16.674Z,99.90
2018-07-21T09:45:45.163Z,99.90
2018-07-21T09:48:13.537Z,99.90
2018-07-21T09:50:42.024Z,99.90
2018-07-21T09:53:10.442Z,99.90
2018-07-21T09:55:38.963Z,99.90
2018-07-21T09:58:07.418Z,99.90
2018-07-21T10:00:41.193Z,99.90
2018-07-21T10:03:09.637Z,99.90
2018-07-21T10:05:38.021Z,99.90
2018-07-21T10:08:06.520Z,99.90
2018-07-21T10:10:35.911Z,99.90
2018-07-21T10:15:32.487Z,99.90
2018-07-21T10:18:00.857Z,99.90
2018-07-21T10:20:29.242Z,99.90
2018-07-21T10:22:57.666Z,99.90
2018-07-21T10:25:31.327Z,99.90
2018-07-21T10:28:05.111Z,99.90
2018-07-21T10:30:33.547Z,99.90
2018-07-21T10:33:01.928Z,99.90
2018-07-21T10:35:30.357Z,99.90
2018-07-21T10:37:58.971Z,99.90
2018-07-21T10:40:27.432Z,99.90
2018-07-21T10:42:55.825Z,99.90
2018-07-21T10:45:24.367Z,99.90
2018-07-21T10:47:52.785Z,99.90
2018-07-21T10:50:21.292Z,99.90
2018-07-21T10:52:49.714Z,99.90
2018-07-21T10:55:18.102Z,99.90
2018-07-21T10:57:46.527Z,99.90
2018-07-21T11:00:14.992Z,99.90
2018-07-21T11:02:43.406Z,99.90
2018-07-21T11:05:11.825Z,99.90
2018-07-21T11:07:40.226Z,99.90
2018-07-21T11:10:08.617Z,99.90
2018-07-21T11:12:37.062Z,99.90
2018-07-21T11:15:06.915Z,99.90
2018-07-21T11:17:35.349Z,99.90
2018-07-21T11:20:04.253Z,99.90
2018-07-21T11:22:32.682Z,99.90
2018-07-21T11:25:01.139Z,99.90
2018-07-21T11:27:30.173Z,99.90
2018-07-21T11:29:58.612Z,99.90
2018-07-21T11:32:27.087Z,99.90
2018-07-21T11:34:55.450Z,99.90
2018-07-21T11:37:23.892Z,99.90
2018-07-21T11:39:52.754Z,99.90
2018-07-21T11:42:21.511Z,99.90
2018-07-21T11:44:49.920Z,99.90
2018-07-21T11:47:18.329Z,99.90
2018-07-21T11:49:46.769Z,99.90
2018-07-21T11:52:15.155Z,99.90
2018-07-21T11:54:43.950Z,99.90
2018-07-21T11:57:12.302Z,99.90
2018-07-21T11:59:40.687Z,99.90
2018-07-21T12:02:09.069Z,99.90
2018-07-21T12:04:37.537Z,99.90
2018-07-21T12:07:06.027Z,99.90
2018-07-21T12:09:34.453Z,99.90
2018-07-21T12:12:02.901Z,99.90
2018-07-21T12:14:31.405Z,99.90
2018-07-21T12:16:59.814Z,99.90
2018-07-21T12:19:28.251Z,99.90
2018-07-21T12:21:56.771Z,99.90
2018-07-21T12:24:25.214Z,99.90
2018-07-21T12:26:53.619Z,99.90
2018-07-21T12:29:22.138Z,99.90
2018-07-21T12:31:50.537Z,99.90
2018-07-21T12:34:19.083Z,99.90
2018-07-21T12:36:47.473Z,99.90
2018-07-21T12:39:15.911Z,99.90
2018-07-21T12:41:44.345Z,99.90
2018-07-21T12:46:40.901Z,99.90
2018-07-21T12:49:09.354Z,99.90
2018-07-21T12:51:38.964Z,99.80
2018-07-21T12:54:07.618Z,99.70
2018-07-21T12:56:36.035Z,99.70
2018-07-21T12:59:04.505Z,99.10
2018-07-21T13:01:32.939Z,99.00
2018-07-21T13:06:29.586Z,99.60
2018-07-21T13:08:58.033Z,99.10
2018-07-21T13:11:26.414Z,99.60
2018-07-21T13:13:54.818Z,99.10
2018-07-21T13:16:23.249Z,99.30
2018-07-21T13:18:51.685Z,98.90
2018-07-21T13:21:20.163Z,98.50
2018-07-21T13:23:48.577Z,97.30
2018-07-21T13:26:17.045Z,95.90
2018-07-21T13:28:45.452Z,96.30
2018-07-21T13:31:13.932Z,97.70
2018-07-21T13:33:42.306Z,95.00
2018-07-21T13:36:10.751Z,95.90
2018-07-21T13:38:39.117Z,95.10
2018-07-21T13:41:07.753Z,96.40
2018-07-21T13:43:36.133Z,95.20
2018-07-21T13:46:04.715Z,95.50
2018-07-21T13:51:01.245Z,94.90
2018-07-21T13:55:57.940Z,94.40
2018-07-21T13:58:26.653Z,88.60
2018-07-21T14:00:55.087Z,77.00
2018-07-21T14:03:23.506Z,71.60
2018-07-21T14:05:51.953Z,69.40
2018-07-21T14:08:27.038Z,67.40
2018-07-21T14:10:55.434Z,66.30
2018-07-21T14:13:23.824Z,65.70
2018-07-21T14:15:52.295Z,65.40
2018-07-21T14:18:20.644Z,65.20
2018-07-21T14:20:49.025Z,65.00
2018-07-21T14:23:17.410Z,65.10
2018-07-21T14:25:45.915Z,64.60
2018-07-21T14:28:14.670Z,65.00
2018-07-21T14:30:43.070Z,64.50
2018-07-21T14:33:11.473Z,63.90
2018-07-21T14:35:39.943Z,64.60
2018-07-21T14:38:08.394Z,64.80
2018-07-21T14:40:36.855Z,65.80
2018-07-21T14:43:05.258Z,68.30
2018-07-21T14:45:33.708Z,71.40
2018-07-21T14:48:02.105Z,73.50
2018-07-21T14:50:30.740Z,75.30
2018-07-21T14:52:59.159Z,76.00
2018-07-21T14:55:27.695Z,76.70
2018-07-21T14:57:56.120Z,76.60
2018-07-21T15:00:24.587Z,75.50
2018-07-21T15:02:52.980Z,74.70
2018-07-21T15:05:21.711Z,72.90
2018-07-21T15:07:50.089Z,72.20
2018-07-21T15:10:18.507Z,72.40
2018-07-21T15:12:46.891Z,73.30
2018-07-21T15:15:15.311Z,75.50
2018-07-21T15:17:43.774Z,77.70
2018-07-21T15:22:46.872Z,81.80
2018-07-21T15:25:15.327Z,85.00
2018-07-21T15:27:43.741Z,88.70
2018-07-21T15:30:12.138Z,90.40
2018-07-21T15:32:40.550Z,92.30
2018-07-21T15:35:08.984Z,93.70
2018-07-21T15:37:37.482Z,94.70
2018-07-21T15:40:06.213Z,95.60
2018-07-21T15:42:34.640Z,96.70
2018-07-21T15:45:03.121Z,97.30
2018-07-21T15:47:31.564Z,98.10
2018-07-21T15:49:59.996Z,98.00
2018-07-21T15:52:28.551Z,97.90
2018-07-21T15:54:57.018Z,97.90
2018-07-21T15:57:25.397Z,97.90
2018-07-21T15:59:53.903Z,98.00
2018-07-21T16:02:22.472Z,97.60
2018-07-21T16:04:50.897Z,97.80
2018-07-21T16:07:19.337Z,97.60
2018-07-21T16:09:47.741Z,97.80
2018-07-21T16:14:44.410Z,98.80
2018-07-21T16:17:12.869Z,98.70
2018-07-21T16:19:41.257Z,98.90
2018-07-21T16:22:09.718Z,98.90
2018-07-21T16:24:38.284Z,98.60
2018-07-21T16:27:06.750Z,98.10
2018-07-21T16:29:35.156Z,98.20
2018-07-21T16:32:03.581Z,98.50
2018-07-21T16:34:32.021Z,98.60
2018-07-21T16:37:00.650Z,98.50
2018-07-21T16:39:29.093Z,98.80
2018-07-21T16:41:57.534Z,98.90
2018-07-21T16:44:25.926Z,99.50
2018-07-21T16:46:54.389Z,99.10
2018-07-21T16:49:22.823Z,99.60
2018-07-21T16:51:51.234Z,99.90
2018-07-21T16:54:19.642Z,99.50
2018-07-21T16:56:48.090Z,99.80
2018-07-21T16:59:16.479Z,99.70
2018-07-21T17:01:44.901Z,99.90
2018-07-21T17:04:13.366Z,99.90
2018-07-21T17:06:42.171Z,99.90
2018-07-21T17:11:39.770Z,99.40
2018-07-21T17:14:08.945Z,99.70
2018-07-21T17:16:37.537Z,99.30
2018-07-21T17:19:06.236Z,99.40
2018-07-21T17:21:34.639Z,99.40
2018-07-21T17:24:03.078Z,99.90
2018-07-21T17:26:31.482Z,99.90
2018-07-21T17:28:59.871Z,99.90
2018-07-21T17:31:28.247Z,99.90
2018-07-21T17:33:56.873Z,99.90
2018-07-21T17:36:25.317Z,99.90
2018-07-21T17:38:53.721Z,99.90
2018-07-21T17:41:24.247Z,99.90
2018-07-21T17:43:52.716Z,99.90
2018-07-21T17:46:21.102Z,99.90
2018-07-21T17:48:49.482Z,99.90
2018-07-21T17:51:17.900Z,99.90
2018-07-21T17:53:46.343Z,99.90
2018-07-21T17:56:14.788Z,99.90
2018-07-21T17:58:43.242Z,99.90
2018-07-21T18:01:11.667Z,99.90
2018-07-21T18:03:40.121Z,99.90
2018-07-21T18:06:08.831Z,99.90
2018-07-21T18:08:37.237Z,99.90
2018-07-21T18:11:05.882Z,99.90
2018-07-21T18:13:34.351Z,99.90
2018-07-21T18:16:02.914Z,99.90
2018-07-21T18:20:59.424Z,99.90
2018-07-21T18:23:27.842Z,99.90
2018-07-21T18:25:56.244Z,99.90
2018-07-21T18:28:24.679Z,99.90
2018-07-21T18:30:53.042Z,99.90
2018-07-21T18:33:21.517Z,99.90
2018-07-21T18:35:49.899Z,99.90
2018-07-21T18:38:18.349Z,99.90
2018-07-21T18:40:46.803Z,99.90
2018-07-21T18:43:15.311Z,99.90
2018-07-21T18:45:43.927Z,99.90
2018-07-21T18:48:12.407Z,99.90
2018-07-21T18:50:40.831Z,99.90
2018-07-21T18:53:09.209Z,99.90
2018-07-21T18:55:37.683Z,99.80
2018-07-21T18:58:06.158Z,99.90
2018-07-21T19:00:34.603Z,99.90
2018-07-21T19:03:03.074Z,99.90
2018-07-21T19:05:31.541Z,99.90
2018-07-21T19:08:00.131Z,99.90
2018-07-21T19:12:56.890Z,99.90
2018-07-21T19:15:30.789Z,99.90
2018-07-21T19:17:59.241Z,99.90
2018-07-21T19:20:33.138Z,99.90
2018-07-21T19:23:01.553Z,99.90
2018-07-21T19:25:35.329Z,99.90
2018-07-21T19:28:03.737Z,99.90
2018-07-21T19:30:32.231Z,99.90
2018-07-21T19:33:01.484Z,99.90
2018-07-21T19:37:59.612Z,99.90
2018-07-21T19:40:28.096Z,99.90
2018-07-21T19:42:56.883Z,99.90
2018-07-21T19:45:25.293Z,99.90
2018-07-21T19:47:53.884Z,99.90
2018-07-21T19:50:22.357Z,99.90
2018-07-21T19:55:18.846Z,99.90
2018-07-21T19:57:47.270Z,99.90
2018-07-21T20:02:43.786Z,99.90
2018-07-21T20:05:13.001Z,99.80
2018-07-21T20:07:41.520Z,99.90
2018-07-21T20:10:10.082Z,99.90
2018-07-21T20:12:38.534Z,99.90
2018-07-21T20:15:07.146Z,99.90
2018-07-21T20:17:35.582Z,99.90
2018-07-21T20:20:04.106Z,99.90
2018-07-21T20:22:32.571Z,99.90
2018-07-21T20:25:01.067Z,99.90
2018-07-21T20:27:29.435Z,99.90
2018-07-21T20:29:58.867Z,99.40
2018-07-21T20:32:27.310Z,99.70
2018-07-21T20:34:55.723Z,99.60
2018-07-21T20:37:24.090Z,99.50
2018-07-21T20:42:20.781Z,99.60
2018-07-21T20:44:49.183Z,99.60
2018-07-21T20:47:17.584Z,99.50
2018-07-21T20:49:46.119Z,99.20
2018-07-21T20:52:14.529Z,99.00
2018-07-21T20:54:43.618Z,99.10
2018-07-21T20:57:12.047Z,99.00
2018-07-21T20:59:40.418Z,99.40
2018-07-21T21:02:08.817Z,99.20
2018-07-21T21:04:37.215Z,99.20
2018-07-21T21:07:06.082Z,99.30
2018-07-21T21:09:34.454Z,99.30
2018-07-21T21:12:02.846Z,99.20
2018-07-21T21:14:31.253Z,99.40
2018-07-21T21:16:59.665Z,99.60
2018-07-21T21:19:28.092Z,99.50
2018-07-21T21:21:56.533Z,99.50
2018-07-21T21:24:24.921Z,99.30
2018-07-21T21:26:54.190Z,99.40
2018-07-21T21:29:22.620Z,99.50
2018-07-21T21:31:51.111Z,99.60
2018-07-21T21:34:19.558Z,99.70
2018-07-21T21:36:48.093Z,99.90
2018-07-21T21:39:17.940Z,99.80
2018-07-21T21:41:46.861Z,99.80
2018-07-21T21:44:15.237Z,99.90
2018-07-21T21:46:43.690Z,99.90
2018-07-21T21:49:12.123Z,99.90
2018-07-21T21:51:40.553Z,99.90
2018-07-21T21:54:08.981Z,99.90
2018-07-21T21:56:37.347Z,99.90
2018-07-21T21:59:05.986Z,99.90
2018-07-21T22:01:34.387Z,99.90
2018-07-21T22:04:02.861Z,99.90
2018-07-21T22:06:31.206Z,99.90
2018-07-21T22:08:59.909Z,99.90
2018-07-21T22:11:28.325Z,99.90
2018-07-21T22:13:56.767Z,99.90
2018-07-21T22:16:25.187Z,99.90
2018-07-21T22:18:53.594Z,99.90
2018-07-21T22:21:22.033Z,99.90
2018-07-21T22:23:50.495Z,99.90
2018-07-21T22:26:19.059Z,99.90
2018-07-21T22:28:47.526Z,99.90
2018-07-21T22:31:15.880Z,99.90
2018-07-21T22:33:44.366Z,99.90
2018-07-21T22:36:12.781Z,99.90
2018-07-21T22:38:41.210Z,99.90
2018-07-21T22:41:12.641Z,99.90
2018-07-21T22:43:41.070Z,99.90
2018-07-21T22:46:09.496Z,99.90
2018-07-21T22:48:37.904Z,99.90
2018-07-21T22:51:06.619Z,99.90
2018-07-21T22:56:03.193Z,99.90
2018-07-21T22:58:31.622Z,99.90
2018-07-21T23:03:28.379Z,99.90
2018-07-21T23:05:56.797Z,99.90
2018-07-21T23:08:25.204Z,99.90
2018-07-21T23:10:53.637Z,99.90
2018-07-21T23:13:22.085Z,99.90
2018-07-21T23:15:50.691Z,99.90
2018-07-21T23:18:19.227Z,99.90
2018-07-21T23:20:47.717Z,99.90
2018-07-21T23:23:16.096Z,99.90
2018-07-21T23:25:44.594Z,99.90
2018-07-21T23:28:12.973Z,99.90
2018-07-21T23:30:41.384Z,99.90
2018-07-21T23:35:37.899Z,99.90
2018-07-21T23:38:06.346Z,99.90
2018-07-21T23:40:34.745Z,99.90
2018-07-21T23:43:03.169Z,99.90
2018-07-21T23:45:31.573Z,99.90
2018-07-21T23:47:59.948Z,99.90
2018-07-21T23:50:28.431Z,99.90
2018-07-21T23:52:56.822Z,99.90
2018-07-21T23:55:25.291Z,99.90
2018-07-21T23:57:54.086Z,99.90
